createdAt,value
2019-02-11T15:13:12.827Z,55.63
2019-02-11T15:18:14.903Z,56.17
2019-02-11T15:23:17.390Z,57.13
2019-02-11T15:28:23.157Z,56.37
2019-02-11T15:33:25.453Z,57.38
2019-02-11T15:38:29.261Z,56.45
2019-02-11T15:43:32.814Z,55.77
2019-02-11T15:48:42.616Z,56.15
2019-02-11T15:53:39.115Z,55.77
2019-02-11T15:58:43.126Z,55.43
2019-02-11T16:03:45.530Z,55.64
2019-02-11T16:08:47.958Z,57.68
2019-02-11T16:13:50.252Z,58.72
2019-02-11T16:18:52.268Z,58.89
2019-02-11T16:23:55.672Z,59.63
2019-02-11T16:28:57.736Z,59.45
2019-02-11T16:34:05.106Z,58.86
2019-02-11T16:39:08.558Z,58.53
2019-02-11T16:44:10.685Z,58.60
2019-02-11T16:49:14.166Z,58.97
2019-02-11T16:54:16.589Z,59.99
2019-02-11T16:59:19.017Z,61.45
2019-02-11T17:04:21.687Z,61.12
2019-02-11T17:09:23.710Z,61.62
2019-02-11T17:14:26.128Z,62.38
2019-02-11T17:19:30.284Z,63.18
2019-02-11T17:24:34.790Z,63.65
2019-02-11T17:29:39.357Z,63.00
2019-02-11T17:34:41.613Z,64.70
2019-02-11T17:39:44.130Z,65.05
2019-02-11T17:44:48.802Z,64.55
2019-02-11T17:49:50.886Z,65.23
2019-02-11T17:54:53.178Z,65.06
2019-02-11T17:59:56.476Z,65.17
2019-02-11T18:05:01.344Z,65.55
2019-02-11T18:10:05.215Z,65.49
2019-02-11T18:15:07.890Z,65.15
2019-02-11T18:20:11.477Z,66.11
2019-02-11T18:25:15.259Z,67.66
2019-02-11T18:30:17.280Z,67.92
2019-02-11T18:35:19.553Z,67.28
2019-02-11T18:40:21.583Z,68.87
2019-02-11T18:45:25.331Z,68.32
2019-02-11T18:50:30.420Z,68.51
2019-02-11T18:55:41.850Z,68.61
2019-02-11T19:00:46.676Z,69.80
2019-02-11T19:05:48.770Z,70.64
2019-02-11T19:10:52.734Z,71.44
2019-02-11T19:15:55.183Z,71.91
2019-02-11T19:20:57.207Z,71.42
2019-02-11T19:25:59.226Z,71.56
2019-02-11T19:31:01.242Z,71.56
2019-02-11T19:36:04.769Z,72.14
2019-02-11T19:41:06.787Z,71.08
2019-02-11T19:46:09.031Z,72.45
2019-02-11T19:51:11.036Z,72.82
2019-02-11T19:56:13.305Z,73.21
2019-02-11T20:01:15.355Z,73.25
2019-02-11T20:06:17.704Z,73.73
2019-02-11T20:11:22.231Z,73.66
2019-02-11T20:16:26.128Z,73.84
2019-02-11T20:21:28.151Z,73.80
2019-02-11T20:26:30.365Z,74.92
2019-02-11T20:31:32.419Z,74.87
2019-02-11T20:36:34.704Z,75.03
2019-02-11T20:41:36.950Z,75.43
2019-02-11T20:46:39.410Z,76.12
2019-02-11T20:51:41.507Z,76.56
2019-02-11T20:56:43.788Z,76.85
2019-02-11T21:01:45.889Z,76.45
2019-02-11T21:06:48.326Z,76.74
2019-02-11T21:11:51.474Z,77.32
2019-02-11T21:16:53.475Z,76.81
2019-02-11T21:21:56.594Z,76.64
2019-02-11T21:26:58.646Z,77.38
2019-02-11T21:32:00.792Z,77.58
2019-02-11T21:37:02.738Z,77.81
2019-02-11T21:42:05.100Z,77.34
2019-02-11T21:47:07.368Z,77.58
2019-02-11T21:52:09.426Z,77.81
2019-02-11T21:57:13.930Z,77.90
2019-02-11T22:02:16.072Z,76.80
2019-02-11T22:07:18.233Z,77.96
2019-02-11T22:12:26.197Z,78.43
2019-02-11T22:17:28.979Z,78.45
2019-02-11T22:22:31.054Z,78.34
2019-02-11T22:27:33.069Z,78.13
2019-02-11T22:32:35.515Z,78.58
2019-02-11T22:37:37.563Z,78.73
2019-02-11T22:42:42.353Z,78.92
2019-02-11T22:47:44.715Z,78.72
2019-02-11T22:52:47.159Z,78.91
2019-02-11T22:57:52.681Z,79.67
2019-02-11T23:02:57.545Z,79.13
2019-02-11T23:08:00.138Z,79.64
2019-02-11T23:13:02.226Z,79.17
2019-02-11T23:18:05.754Z,78.36
2019-02-11T23:23:08.503Z,77.96
2019-02-11T23:28:10.728Z,77.77
2019-02-11T23:33:14.999Z,75.76
2019-02-11T23:38:17.421Z,74.34
2019-02-11T23:43:19.514Z,73.81
2019-02-11T23:48:25.408Z,74.96
2019-02-11T23:53:28.323Z,76.52
2019-02-11T23:58:30.865Z,77.64
